sensor_id;sensor_type;location;lat;lon;timestamp;temperature;humidity
31661;DHT22;18267;52.234;7.444;2022-12-07T00:01:30;6.50;99.90
31661;DHT22;18267;52.234;7.444;2022-12-07T00:03:57;6.60;99.90
31661;DHT22;18267;52.234;7.444;2022-12-07T00:06:26;6.60;99.90
31661;DHT22;18267;52.234;7.444;2022-12-07T00:08:51;6.60;99.90
31661;DHT22;18267;52.234;7.444;2022-12-07T00:11:20;6.60;99.90
31661;DHT22;18267;52.234;7.444;2022-12-07T00:13:47;6.60;99.90
31661;DHT22;18267;52.234;7.444;2022-12-07T00:16:16;6.60;99.90
31661;DHT22;18267;52.234;7.444;2022-12-07T00:18:42;6.60;99.90
31661;DHT22;18267;52.234;7.444;2022-12-07T00:21:12;6.60;99.90
31661;DHT22;18267;52.234;7.444;2022-12-07T00:23:37;6.60;99.90
31661;DHT22;18267;52.234;7.444;2022-12-07T00:26:08;6.50;99.90
31661;DHT22;18267;52.234;7.444;2022-12-07T00:28:33;6.60;99.90
31661;DHT22;18267;52.234;7.444;2022-12-07T00:31:09;6.60;99.90
31661;DHT22;18267;52.234;7.444;2022-12-07T00:33:35;6.60;99.90
31661;DHT22;18267;52.234;7.444;2022-12-07T00:36:01;6.50;99.90
31661;DHT22;18267;52.234;7.444;2022-12-07T00:38:29;6.50;99.90
31661;DHT22;18267;52.234;7.444;2022-12-07T00:40:58;6.50;99.90
31661;DHT22;18267;52.234;7.444;2022-12-07T00:43:24;6.40;99.90
31661;DHT22;18267;52.234;7.444;2022-12-07T00:45:49;6.40;99.90
31661;DHT22;18267;52.234;7.444;2022-12-07T00:48:15;6.40;99.90
31661;DHT22;18267;52.234;7.444;2022-12-07T00:50:40;6.40;99.90
31661;DHT22;18267;52.234;7.444;2022-12-07T00:53:06;6.40;99.90
31661;DHT22;18267;52.234;7.444;2022-12-07T00:55:32;6.40;99.90
31661;DHT22;18267;52.234;7.444;2022-12-07T00:57:58;6.30;99.90
31661;DHT22;18267;52.234;7.444;2022-12-07T01:00:23;6.30;99.90
31661;DHT22;18267;52.234;7.444;2022-12-07T01:02:49;6.20;99.90
31661;DHT22;18267;52.234;7.444;2022-12-07T01:05:14;6.20;99.90
31661;DHT22;18267;52.234;7.444;2022-12-07T01:07:40;6.20;99.90
31661;DHT22;18267;52.234;7.444;2022-12-07T01:10:05;6.20;99.90
31661;DHT22;18267;52.234;7.444;2022-12-07T01:12:31;6.10;99.90
31661;DHT22;18267;52.234;7.444;2022-12-07T01:14:56;6.00;99.90
31661;DHT22;18267;52.234;7.444;2022-12-07T01:17:22;6.00;99.90
31661;DHT22;18267;52.234;7.444;2022-12-07T01:19:47;5.90;99.90
31661;DHT22;18267;52.234;7.444;2022-12-07T01:22:13;6.00;99.90
31661;DHT22;18267;52.234;7.444;2022-12-07T01:24:38;6.00;99.90
31661;DHT22;18267;52.234;7.444;2022-12-07T01:27:04;5.90;99.90
31661;DHT22;18267;52.234;7.444;2022-12-07T01:29:29;5.90;99.90
31661;DHT22;18267;52.234;7.444;2022-12-07T01:31:54;5.90;99.90
31661;DHT22;18267;52.234;7.444;2022-12-07T01:34:20;6.00;99.90
31661;DHT22;18267;52.234;7.444;2022-12-07T01:36:45;5.90;99.90
31661;DHT22;18267;52.234;7.444;2022-12-07T01:39:11;5.90;99.90
31661;DHT22;18267;52.234;7.444;2022-12-07T01:41:37;5.90;99.90
31661;DHT22;18267;52.234;7.444;2022-12-07T01:46:36;5.70;99.90
31661;DHT22;18267;52.234;7.444;2022-12-07T01:49:03;5.70;99.90
31661;DHT22;18267;52.234;7.444;2022-12-07T01:51:29;5.70;99.90
31661;DHT22;18267;52.234;7.444;2022-12-07T01:53:54;5.70;99.90
31661;DHT22;18267;52.234;7.444;2022-12-07T01:56:20;5.70;99.90
31661;DHT22;18267;52.234;7.444;2022-12-07T01:58:47;5.60;99.90
31661;DHT22;18267;52.234;7.444;2022-12-07T02:01:13;5.70;99.90
31661;DHT22;18267;52.234;7.444;2022-12-07T02:03:39;5.60;99.90
31661;DHT22;18267;52.234;7.444;2022-12-07T02:06:05;5.50;99.90
31661;DHT22;18267;52.234;7.444;2022-12-07T02:08:31;5.60;99.90
31661;DHT22;18267;52.234;7.444;2022-12-07T02:10:57;5.60;99.90
31661;DHT22;18267;52.234;7.444;2022-12-07T02:13:23;5.50;99.90
31661;DHT22;18267;52.234;7.444;2022-12-07T02:23:57;5.50;99.90
31661;DHT22;18267;52.234;7.444;2022-12-07T02:31:29;5.50;99.90
31661;DHT22;18267;52.234;7.444;2022-12-07T02:34:42;5.40;99.90
31661;DHT22;18267;52.234;7.444;2022-12-07T02:36:43;5.30;99.90
31661;DHT22;18267;52.234;7.444;2022-12-07T02:39:20;5.40;99.90
31661;DHT22;18267;52.234;7.444;2022-12-07T02:41:50;5.40;99.90
31661;DHT22;18267;52.234;7.444;2022-12-07T02:44:18;5.40;99.90
31661;DHT22;18267;52.234;7.444;2022-12-07T02:46:50;5.40;99.90
31661;DHT22;18267;52.234;7.444;2022-12-07T02:49:16;5.40;99.90
31661;DHT22;18267;52.234;7.444;2022-12-07T02:51:42;5.40;99.90
31661;DHT22;18267;52.234;7.444;2022-12-07T02:54:10;5.40;99.90
31661;DHT22;18267;52.234;7.444;2022-12-07T02:59:29;5.30;99.90
31661;DHT22;18267;52.234;7.444;2022-12-07T03:04:52;5.30;99.90
31661;DHT22;18267;52.234;7.444;2022-12-07T03:12:17;5.20;99.90
31661;DHT22;18267;52.234;7.444;2022-12-07T03:14:46;5.30;99.90
31661;DHT22;18267;52.234;7.444;2022-12-07T03:17:13;5.30;99.90
31661;DHT22;18267;52.234;7.444;2022-12-07T03:19:39;5.20;99.90
31661;DHT22;18267;52.234;7.444;2022-12-07T03:22:07;5.30;99.90
31661;DHT22;18267;52.234;7.444;2022-12-07T03:24:35;5.30;99.90
31661;DHT22;18267;52.234;7.444;2022-12-07T03:27:03;5.30;99.90
31661;DHT22;18267;52.234;7.444;2022-12-07T03:29:36;5.20;99.90
31661;DHT22;18267;52.234;7.444;2022-12-07T03:32:12;5.20;99.90
31661;DHT22;18267;52.234;7.444;2022-12-07T03:34:41;5.20;99.90
31661;DHT22;18267;52.234;7.444;2022-12-07T03:37:15;5.20;99.90
31661;DHT22;18267;52.234;7.444;2022-12-07T03:39:45;5.20;99.90
31661;DHT22;18267;52.234;7.444;2022-12-07T03:42:12;5.10;99.90
31661;DHT22;18267;52.234;7.444;2022-12-07T03:44:38;5.20;99.90
31661;DHT22;18267;52.234;7.444;2022-12-07T03:49:54;5.20;99.90
31661;DHT22;18267;52.234;7.444;2022-12-07T03:52:30;5.30;99.90
31661;DHT22;18267;52.234;7.444;2022-12-07T03:55:02;5.20;99.90
31661;DHT22;18267;52.234;7.444;2022-12-07T03:57:29;5.20;99.90
31661;DHT22;18267;52.234;7.444;2022-12-07T03:59:55;5.20;99.90
31661;DHT22;18267;52.234;7.444;2022-12-07T04:02:22;5.30;99.90
31661;DHT22;18267;52.234;7.444;2022-12-07T04:04:48;5.20;99.90
31661;DHT22;18267;52.234;7.444;2022-12-07T04:07:14;5.30;99.90
31661;DHT22;18267;52.234;7.444;2022-12-07T04:09:39;5.20;99.90
31661;DHT22;18267;52.234;7.444;2022-12-07T04:12:05;5.30;99.90
31661;DHT22;18267;52.234;7.444;2022-12-07T04:14:30;5.20;99.90
31661;DHT22;18267;52.234;7.444;2022-12-07T04:16:56;5.30;99.90
31661;DHT22;18267;52.234;7.444;2022-12-07T04:19:23;5.30;99.90
31661;DHT22;18267;52.234;7.444;2022-12-07T04:21:49;5.40;99.90
31661;DHT22;18267;52.234;7.444;2022-12-07T04:24:15;5.30;99.90
31661;DHT22;18267;52.234;7.444;2022-12-07T04:26:40;5.30;99.90
31661;DHT22;18267;52.234;7.444;2022-12-07T04:29:06;5.30;99.90
31661;DHT22;18267;52.234;7.444;2022-12-07T04:31:31;5.40;99.90
31661;DHT22;18267;52.234;7.444;2022-12-07T04:33:56;5.40;99.90
31661;DHT22;18267;52.234;7.444;2022-12-07T04:36:22;5.30;99.90
31661;DHT22;18267;52.234;7.444;2022-12-07T04:38:47;5.30;99.90
31661;DHT22;18267;52.234;7.444;2022-12-07T04:41:13;5.30;99.90
31661;DHT22;18267;52.234;7.444;2022-12-07T04:43:39;5.30;99.90
31661;DHT22;18267;52.234;7.444;2022-12-07T04:46:04;5.20;99.90
31661;DHT22;18267;52.234;7.444;2022-12-07T04:48:30;5.30;99.90
31661;DHT22;18267;52.234;7.444;2022-12-07T04:50:55;5.20;99.90
31661;DHT22;18267;52.234;7.444;2022-12-07T04:53:21;5.30;99.90
31661;DHT22;18267;52.234;7.444;2022-12-07T04:55:46;5.20;99.90
31661;DHT22;18267;52.234;7.444;2022-12-07T04:58:12;5.30;99.90
31661;DHT22;18267;52.234;7.444;2022-12-07T05:00:38;5.30;99.90
31661;DHT22;18267;52.234;7.444;2022-12-07T05:03:03;5.30;99.90
31661;DHT22;18267;52.234;7.444;2022-12-07T05:05:29;5.30;99.90
31661;DHT22;18267;52.234;7.444;2022-12-07T05:07:54;5.20;99.90
31661;DHT22;18267;52.234;7.444;2022-12-07T05:10:20;5.10;99.90
31661;DHT22;18267;52.234;7.444;2022-12-07T05:12:45;5.20;99.90
31661;DHT22;18267;52.234;7.444;2022-12-07T05:15:11;5.10;99.90
31661;DHT22;18267;52.234;7.444;2022-12-07T05:17:36;5.10;99.90
31661;DHT22;18267;52.234;7.444;2022-12-07T05:20:02;5.10;99.90
31661;DHT22;18267;52.234;7.444;2022-12-07T05:22:27;5.10;99.90
31661;DHT22;18267;52.234;7.444;2022-12-07T05:24:54;5.20;99.90
31661;DHT22;18267;52.234;7.444;2022-12-07T05:27:19;5.30;99.90
31661;DHT22;18267;52.234;7.444;2022-12-07T05:29:45;5.20;99.90
31661;DHT22;18267;52.234;7.444;2022-12-07T05:32:10;5.30;99.90
31661;DHT22;18267;52.234;7.444;2022-12-07T05:34:36;5.30;99.90
31661;DHT22;18267;52.234;7.444;2022-12-07T05:37:01;5.20;99.90
31661;DHT22;18267;52.234;7.444;2022-12-07T05:39:27;5.20;99.90
31661;DHT22;18267;52.234;7.444;2022-12-07T05:41:52;5.20;99.90
31661;DHT22;18267;52.234;7.444;2022-12-07T05:44:36;5.20;99.90
31661;DHT22;18267;52.234;7.444;2022-12-07T05:47:02;5.20;99.90
31661;DHT22;18267;52.234;7.444;2022-12-07T05:49:27;5.20;99.90
31661;DHT22;18267;52.234;7.444;2022-12-07T05:51:53;5.20;99.90
31661;DHT22;18267;52.234;7.444;2022-12-07T05:54:18;5.20;99.90
31661;DHT22;18267;52.234;7.444;2022-12-07T05:56:44;5.10;99.90
31661;DHT22;18267;52.234;7.444;2022-12-07T05:59:09;5.10;99.90
31661;DHT22;18267;52.234;7.444;2022-12-07T06:01:59;5.10;99.90
31661;DHT22;18267;52.234;7.444;2022-12-07T06:04:28;5.10;99.90
31661;DHT22;18267;52.234;7.444;2022-12-07T06:06:54;5.10;99.90
31661;DHT22;18267;52.234;7.444;2022-12-07T06:09:20;5.10;99.90
31661;DHT22;18267;52.234;7.444;2022-12-07T06:11:45;5.10;99.90
31661;DHT22;18267;52.234;7.444;2022-12-07T06:14:29;5.20;99.90
31661;DHT22;18267;52.234;7.444;2022-12-07T06:16:55;5.20;99.90
31661;DHT22;18267;52.234;7.444;2022-12-07T06:19:20;5.20;99.90
31661;DHT22;18267;52.234;7.444;2022-12-07T06:21:46;5.10;99.90
31661;DHT22;18267;52.234;7.444;2022-12-07T06:24:12;5.10;99.90
31661;DHT22;18267;52.234;7.444;2022-12-07T06:26:38;5.00;99.90
31661;DHT22;18267;52.234;7.444;2022-12-07T06:29:03;4.90;99.90
31661;DHT22;18267;52.234;7.444;2022-12-07T06:31:29;4.80;99.90
31661;DHT22;18267;52.234;7.444;2022-12-07T06:33:58;4.90;99.90
31661;DHT22;18267;52.234;7.444;2022-12-07T06:36:24;4.90;99.90
31661;DHT22;18267;52.234;7.444;2022-12-07T06:38:49;4.90;99.90
31661;DHT22;18267;52.234;7.444;2022-12-07T06:41:15;4.80;99.90
31661;DHT22;18267;52.234;7.444;2022-12-07T06:43:40;4.80;99.90
31661;DHT22;18267;52.234;7.444;2022-12-07T06:46:07;4.70;99.90
31661;DHT22;18267;52.234;7.444;2022-12-07T06:48:32;4.80;99.90
31661;DHT22;18267;52.234;7.444;2022-12-07T06:50:58;4.80;99.90
31661;DHT22;18267;52.234;7.444;2022-12-07T06:53:23;4.80;99.90
31661;DHT22;18267;52.234;7.444;2022-12-07T06:55:49;4.80;99.90
31661;DHT22;18267;52.234;7.444;2022-12-07T06:58:14;4.90;99.90
31661;DHT22;18267;52.234;7.444;2022-12-07T07:00:40;4.90;99.90
31661;DHT22;18267;52.234;7.444;2022-12-07T07:03:05;4.90;99.90
31661;DHT22;18267;52.234;7.444;2022-12-07T07:05:31;4.90;99.90
31661;DHT22;18267;52.234;7.444;2022-12-07T07:07:56;5.00;99.90
31661;DHT22;18267;52.234;7.444;2022-12-07T07:10:22;4.90;99.90
31661;DHT22;18267;52.234;7.444;2022-12-07T07:12:47;4.90;99.90
31661;DHT22;18267;52.234;7.444;2022-12-07T07:15:13;4.90;99.90
31661;DHT22;18267;52.234;7.444;2022-12-07T07:17:38;4.90;99.90
31661;DHT22;18267;52.234;7.444;2022-12-07T07:20:04;4.80;99.90
31661;DHT22;18267;52.234;7.444;2022-12-07T07:22:30;4.90;99.90
31661;DHT22;18267;52.234;7.444;2022-12-07T07:24:55;4.90;99.90
31661;DHT22;18267;52.234;7.444;2022-12-07T07:27:20;4.90;99.90
31661;DHT22;18267;52.234;7.444;2022-12-07T07:29:46;5.10;99.90
31661;DHT22;18267;52.234;7.444;2022-12-07T07:32:11;5.10;99.90
31661;DHT22;18267;52.234;7.444;2022-12-07T07:34:37;5.10;99.90
31661;DHT22;18267;52.234;7.444;2022-12-07T07:37:03;5.00;99.90
31661;DHT22;18267;52.234;7.444;2022-12-07T07:39:28;5.00;99.90
31661;DHT22;18267;52.234;7.444;2022-12-07T07:41:54;5.10;99.90
31661;DHT22;18267;52.234;7.444;2022-12-07T07:44:19;5.00;99.90
31661;DHT22;18267;52.234;7.444;2022-12-07T07:46:44;5.00;99.90
31661;DHT22;18267;52.234;7.444;2022-12-07T07:49:10;5.00;99.90
31661;DHT22;18267;52.234;7.444;2022-12-07T07:51:36;4.90;99.90
31661;DHT22;18267;52.234;7.444;2022-12-07T07:54:01;4.80;99.90
31661;DHT22;18267;52.234;7.444;2022-12-07T07:56:27;4.80;99.90
31661;DHT22;18267;52.234;7.444;2022-12-07T07:58:52;4.80;99.90
31661;DHT22;18267;52.234;7.444;2022-12-07T08:01:18;4.80;99.90
31661;DHT22;18267;52.234;7.444;2022-12-07T08:03:45;4.80;99.90
31661;DHT22;18267;52.234;7.444;2022-12-07T08:06:11;4.90;99.90
31661;DHT22;18267;52.234;7.444;2022-12-07T08:08:36;4.90;99.90
31661;DHT22;18267;52.234;7.444;2022-12-07T08:11:04;4.90;99.90
31661;DHT22;18267;52.234;7.444;2022-12-07T08:13:30;4.90;99.90
31661;DHT22;18267;52.234;7.444;2022-12-07T08:15:55;5.10;99.90
31661;DHT22;18267;52.234;7.444;2022-12-07T08:18:21;5.10;99.90
31661;DHT22;18267;52.234;7.444;2022-12-07T08:20:46;5.20;99.90
31661;DHT22;18267;52.234;7.444;2022-12-07T08:23:12;5.20;99.90
31661;DHT22;18267;52.234;7.444;2022-12-07T08:25:37;5.20;99.90
31661;DHT22;18267;52.234;7.444;2022-12-07T08:28:03;5.30;99.90
31661;DHT22;18267;52.234;7.444;2022-12-07T08:30:29;5.40;99.90
31661;DHT22;18267;52.234;7.444;2022-12-07T08:32:55;5.40;99.90
31661;DHT22;18267;52.234;7.444;2022-12-07T08:35:20;5.30;99.90
31661;DHT22;18267;52.234;7.444;2022-12-07T08:37:46;5.40;99.90
31661;DHT22;18267;52.234;7.444;2022-12-07T08:40:12;5.40;99.90
31661;DHT22;18267;52.234;7.444;2022-12-07T08:42:41;5.50;99.90
31661;DHT22;18267;52.234;7.444;2022-12-07T08:45:07;5.60;99.90
31661;DHT22;18267;52.234;7.444;2022-12-07T08:47:34;5.60;99.90
31661;DHT22;18267;52.234;7.444;2022-12-07T08:50:01;5.60;99.90
31661;DHT22;18267;52.234;7.444;2022-12-07T08:52:29;5.60;99.90
31661;DHT22;18267;52.234;7.444;2022-12-07T08:54:55;5.60;99.90
31661;DHT22;18267;52.234;7.444;2022-12-07T08:57:20;5.70;99.90
31661;DHT22;18267;52.234;7.444;2022-12-07T08:59:46;5.70;99.90
31661;DHT22;18267;52.234;7.444;2022-12-07T09:02:12;5.60;99.90
31661;DHT22;18267;52.234;7.444;2022-12-07T09:04:37;5.60;99.90
31661;DHT22;18267;52.234;7.444;2022-12-07T09:07:03;5.60;99.90
31661;DHT22;18267;52.234;7.444;2022-12-07T09:09:29;5.50;99.90
31661;DHT22;18267;52.234;7.444;2022-12-07T09:11:54;5.60;99.90
31661;DHT22;18267;52.234;7.444;2022-12-07T09:14:20;5.70;99.90
31661;DHT22;18267;52.234;7.444;2022-12-07T09:16:45;5.70;99.90
31661;DHT22;18267;52.234;7.444;2022-12-07T09:19:11;5.70;99.90
31661;DHT22;18267;52.234;7.444;2022-12-07T09:21:37;5.80;99.90
31661;DHT22;18267;52.234;7.444;2022-12-07T09:24:02;5.70;99.90
31661;DHT22;18267;52.234;7.444;2022-12-07T09:26:27;5.80;99.90
31661;DHT22;18267;52.234;7.444;2022-12-07T09:28:53;5.80;99.90
31661;DHT22;18267;52.234;7.444;2022-12-07T09:31:18;5.90;99.90
31661;DHT22;18267;52.234;7.444;2022-12-07T09:33:44;5.90;99.90
31661;DHT22;18267;52.234;7.444;2022-12-07T09:36:09;6.00;99.90
31661;DHT22;18267;52.234;7.444;2022-12-07T09:38:35;6.00;99.90
31661;DHT22;18267;52.234;7.444;2022-12-07T09:41:05;6.00;99.90
31661;DHT22;18267;52.234;7.444;2022-12-07T09:43:31;6.10;99.90
31661;DHT22;18267;52.234;7.444;2022-12-07T09:45:56;6.00;99.90
31661;DHT22;18267;52.234;7.444;2022-12-07T09:48:26;6.00;99.90
31661;DHT22;18267;52.234;7.444;2022-12-07T09:50:53;6.00;99.90
31661;DHT22;18267;52.234;7.444;2022-12-07T09:53:27;6.00;99.90
31661;DHT22;18267;52.234;7.444;2022-12-07T09:55:54;6.00;99.90
31661;DHT22;18267;52.234;7.444;2022-12-07T09:58:22;6.10;99.90
31661;DHT22;18267;52.234;7.444;2022-12-07T10:00:49;6.10;99.90
31661;DHT22;18267;52.234;7.444;2022-12-07T10:03:15;6.10;99.90
31661;DHT22;18267;52.234;7.444;2022-12-07T10:05:45;6.10;99.90
31661;DHT22;18267;52.234;7.444;2022-12-07T10:08:12;6.20;99.90
31661;DHT22;18267;52.234;7.444;2022-12-07T10:10:38;6.20;99.90
31661;DHT22;18267;52.234;7.444;2022-12-07T10:13:06;6.30;99.90
31661;DHT22;18267;52.234;7.444;2022-12-07T10:18:20;6.20;99.90
31661;DHT22;18267;52.234;7.444;2022-12-07T10:20:49;6.10;99.90
31661;DHT22;18267;52.234;7.444;2022-12-07T10:23:16;6.20;99.90
31661;DHT22;18267;52.234;7.444;2022-12-07T10:25:42;6.10;99.90
31661;DHT22;18267;52.234;7.444;2022-12-07T10:30:33;6.10;99.90
31661;DHT22;18267;52.234;7.444;2022-12-07T10:35:54;6.30;99.90
31661;DHT22;18267;52.234;7.444;2022-12-07T10:38:20;6.40;99.90
31661;DHT22;18267;52.234;7.444;2022-12-07T10:40:45;6.40;99.90
31661;DHT22;18267;52.234;7.444;2022-12-07T10:45:57;6.50;99.90
31661;DHT22;18267;52.234;7.444;2022-12-07T10:48:35;6.50;99.90
31661;DHT22;18267;52.234;7.444;2022-12-07T11:01:16;6.60;99.90
31661;DHT22;18267;52.234;7.444;2022-12-07T11:14:02;6.80;99.90
31661;DHT22;18267;52.234;7.444;2022-12-07T11:19:10;6.80;99.90
31661;DHT22;18267;52.234;7.444;2022-12-07T11:21:56;6.90;99.90
31661;DHT22;18267;52.234;7.444;2022-12-07T11:24:41;6.80;99.90
31661;DHT22;18267;52.234;7.444;2022-12-07T11:29:53;6.70;99.90
31661;DHT22;18267;52.234;7.444;2022-12-07T11:37:33;6.50;99.90
31661;DHT22;18267;52.234;7.444;2022-12-07T11:42:49;6.60;99.90
31661;DHT22;18267;52.234;7.444;2022-12-07T11:45:25;6.70;99.90
31661;DHT22;18267;52.234;7.444;2022-12-07T11:47:55;6.80;99.90
31661;DHT22;18267;52.234;7.444;2022-12-07T11:50:42;6.70;99.90
31661;DHT22;18267;52.234;7.444;2022-12-07T12:00:47;7.10;99.90
31661;DHT22;18267;52.234;7.444;2022-12-07T12:03:15;7.00;99.90
31661;DHT22;18267;52.234;7.444;2022-12-07T12:05:42;7.00;99.90
31661;DHT22;18267;52.234;7.444;2022-12-07T12:10:54;7.00;99.90
31661;DHT22;18267;52.234;7.444;2022-12-07T12:13:39;7.20;99.90
31661;DHT22;18267;52.234;7.444;2022-12-07T12:16:18;7.10;99.90
31661;DHT22;18267;52.234;7.444;2022-12-07T12:18:51;7.10;99.90
31661;DHT22;18267;52.234;7.444;2022-12-07T12:21:20;7.20;99.90
31661;DHT22;18267;52.234;7.444;2022-12-07T12:24:09;7.10;99.90
31661;DHT22;18267;52.234;7.444;2022-12-07T12:26:35;7.10;99.90
31661;DHT22;18267;52.234;7.444;2022-12-07T12:29:06;7.20;99.90
31661;DHT22;18267;52.234;7.444;2022-12-07T12:31:35;7.20;99.90
31661;DHT22;18267;52.234;7.444;2022-12-07T12:34:03;7.30;99.90
31661;DHT22;18267;52.234;7.444;2022-12-07T12:46:50;7.00;99.90
31661;DHT22;18267;52.234;7.444;2022-12-07T12:51:52;6.90;99.90
31661;DHT22;18267;52.234;7.444;2022-12-07T12:54:22;6.90;99.90
31661;DHT22;18267;52.234;7.444;2022-12-07T13:01:45;7.20;99.90
31661;DHT22;18267;52.234;7.444;2022-12-07T13:04:18;7.10;99.90
31661;DHT22;18267;52.234;7.444;2022-12-07T13:06:46;7.20;99.90
31661;DHT22;18267;52.234;7.444;2022-12-07T13:09:22;7.10;99.90
31661;DHT22;18267;52.234;7.444;2022-12-07T13:11:48;7.10;99.90
31661;DHT22;18267;52.234;7.444;2022-12-07T13:16:59;7.10;99.90
31661;DHT22;18267;52.234;7.444;2022-12-07T13:27:58;7.00;99.90
31661;DHT22;18267;52.234;7.444;2022-12-07T13:30:26;7.10;99.90
31661;DHT22;18267;52.234;7.444;2022-12-07T13:32:55;7.10;99.90
31661;DHT22;18267;52.234;7.444;2022-12-07T13:35:31;7.00;99.90
31661;DHT22;18267;52.234;7.444;2022-12-07T13:37:56;7.10;99.90
31661;DHT22;18267;52.234;7.444;2022-12-07T13:40:23;7.10;99.90
31661;DHT22;18267;52.234;7.444;2022-12-07T13:42:56;7.10;99.90
31661;DHT22;18267;52.234;7.444;2022-12-07T13:45:26;7.10;99.90
31661;DHT22;18267;52.234;7.444;2022-12-07T13:48:16;7.10;99.90
31661;DHT22;18267;52.234;7.444;2022-12-07T13:50:48;7.00;99.90
31661;DHT22;18267;52.234;7.444;2022-12-07T13:53:17;7.00;99.90
31661;DHT22;18267;52.234;7.444;2022-12-07T13:55:46;6.90;99.90
31661;DHT22;18267;52.234;7.444;2022-12-07T13:58:11;7.00;99.90
31661;DHT22;18267;52.234;7.444;2022-12-07T14:00:37;6.90;99.90
31661;DHT22;18267;52.234;7.444;2022-12-07T14:03:04;6.90;99.90
31661;DHT22;18267;52.234;7.444;2022-12-07T14:05:34;6.90;99.90
31661;DHT22;18267;52.234;7.444;2022-12-07T14:08:00;6.90;99.90
31661;DHT22;18267;52.234;7.444;2022-12-07T14:10:36;6.90;99.90
31661;DHT22;18267;52.234;7.444;2022-12-07T14:13:17;6.80;99.90
31661;DHT22;18267;52.234;7.444;2022-12-07T14:15:49;6.80;99.90
31661;DHT22;18267;52.234;7.444;2022-12-07T14:18:25;6.70;99.90
31661;DHT22;18267;52.234;7.444;2022-12-07T14:20:52;6.80;99.90
31661;DHT22;18267;52.234;7.444;2022-12-07T14:23:27;6.80;99.90
31661;DHT22;18267;52.234;7.444;2022-12-07T14:25:52;6.70;99.90
31661;DHT22;18267;52.234;7.444;2022-12-07T14:28:25;6.70;99.90
31661;DHT22;18267;52.234;7.444;2022-12-07T14:30:50;6.70;99.90
31661;DHT22;18267;52.234;7.444;2022-12-07T14:33:16;6.70;99.90
31661;DHT22;18267;52.234;7.444;2022-12-07T14:35:42;6.70;99.90
31661;DHT22;18267;52.234;7.444;2022-12-07T14:38:08;6.60;99.90
31661;DHT22;18267;52.234;7.444;2022-12-07T14:40:33;6.60;99.90
31661;DHT22;18267;52.234;7.444;2022-12-07T14:43:03;6.60;99.90
31661;DHT22;18267;52.234;7.444;2022-12-07T14:45:30;6.50;99.90
31661;DHT22;18267;52.234;7.444;2022-12-07T14:47:56;6.60;99.90
31661;DHT22;18267;52.234;7.444;2022-12-07T14:50:21;6.50;99.90
31661;DHT22;18267;52.234;7.444;2022-12-07T14:52:48;6.50;99.90
31661;DHT22;18267;52.234;7.444;2022-12-07T14:55:32;6.50;99.90
31661;DHT22;18267;52.234;7.444;2022-12-07T14:57:58;6.40;99.90
31661;DHT22;18267;52.234;7.444;2022-12-07T15:00:25;6.50;99.90
31661;DHT22;18267;52.234;7.444;2022-12-07T15:02:50;6.50;99.90
31661;DHT22;18267;52.234;7.444;2022-12-07T15:05:16;6.50;99.90
31661;DHT22;18267;52.234;7.444;2022-12-07T15:07:42;6.40;99.90
31661;DHT22;18267;52.234;7.444;2022-12-07T15:10:13;6.40;99.90
31661;DHT22;18267;52.234;7.444;2022-12-07T15:12:38;6.40;99.90
31661;DHT22;18267;52.234;7.444;2022-12-07T15:15:04;6.50;99.90
31661;DHT22;18267;52.234;7.444;2022-12-07T15:17:30;6.40;99.90
31661;DHT22;18267;52.234;7.444;2022-12-07T15:19:56;6.40;99.90
31661;DHT22;18267;52.234;7.444;2022-12-07T15:22:21;6.50;99.90
31661;DHT22;18267;52.234;7.444;2022-12-07T15:24:47;6.50;99.90
31661;DHT22;18267;52.234;7.444;2022-12-07T15:27:12;6.50;99.90
31661;DHT22;18267;52.234;7.444;2022-12-07T15:29:38;6.40;99.90
31661;DHT22;18267;52.234;7.444;2022-12-07T15:32:03;6.40;99.90
31661;DHT22;18267;52.234;7.444;2022-12-07T15:34:29;6.40;99.90
31661;DHT22;18267;52.234;7.444;2022-12-07T15:36:57;6.30;99.90
31661;DHT22;18267;52.234;7.444;2022-12-07T15:39:22;6.20;99.90
31661;DHT22;18267;52.234;7.444;2022-12-07T15:41:48;6.20;99.90
31661;DHT22;18267;52.234;7.444;2022-12-07T15:44:14;6.20;99.90
31661;DHT22;18267;52.234;7.444;2022-12-07T15:46:59;6.30;99.90
31661;DHT22;18267;52.234;7.444;2022-12-07T15:49:25;6.30;99.90
31661;DHT22;18267;52.234;7.444;2022-12-07T15:51:50;6.20;99.90
31661;DHT22;18267;52.234;7.444;2022-12-07T15:54:20;6.30;99.90
31661;DHT22;18267;52.234;7.444;2022-12-07T15:56:46;6.30;99.90
31661;DHT22;18267;52.234;7.444;2022-12-07T15:59:11;6.30;99.90
31661;DHT22;18267;52.234;7.444;2022-12-07T16:01:37;6.20;99.90
31661;DHT22;18267;52.234;7.444;2022-12-07T16:04:02;6.20;99.90
31661;DHT22;18267;52.234;7.444;2022-12-07T16:06:28;6.10;99.90
31661;DHT22;18267;52.234;7.444;2022-12-07T16:08:53;6.10;99.90
31661;DHT22;18267;52.234;7.444;2022-12-07T16:11:19;6.10;99.90
31661;DHT22;18267;52.234;7.444;2022-12-07T16:13:45;6.10;99.90
31661;DHT22;18267;52.234;7.444;2022-12-07T16:16:11;6.00;99.90
31661;DHT22;18267;52.234;7.444;2022-12-07T16:18:37;6.00;99.90
31661;DHT22;18267;52.234;7.444;2022-12-07T16:21:03;6.00;99.90
31661;DHT22;18267;52.234;7.444;2022-12-07T16:23:28;6.10;99.90
31661;DHT22;18267;52.234;7.444;2022-12-07T16:25:54;6.10;99.90
31661;DHT22;18267;52.234;7.444;2022-12-07T16:28:19;6.00;99.90
31661;DHT22;18267;52.234;7.444;2022-12-07T16:30:45;6.00;99.90
31661;DHT22;18267;52.234;7.444;2022-12-07T16:33:11;6.10;99.90
31661;DHT22;18267;52.234;7.444;2022-12-07T16:35:39;6.10;99.90
31661;DHT22;18267;52.234;7.444;2022-12-07T16:38:09;6.10;99.90
31661;DHT22;18267;52.234;7.444;2022-12-07T16:40:34;6.00;99.90
31661;DHT22;18267;52.234;7.444;2022-12-07T16:43:00;6.10;99.90
31661;DHT22;18267;52.234;7.444;2022-12-07T16:45:25;6.10;99.90
31661;DHT22;18267;52.234;7.444;2022-12-07T16:47:51;6.10;99.90
31661;DHT22;18267;52.234;7.444;2022-12-07T16:50:16;6.10;99.90
31661;DHT22;18267;52.234;7.444;2022-12-07T16:52:41;6.10;99.90
31661;DHT22;18267;52.234;7.444;2022-12-07T16:55:07;6.10;99.90
31661;DHT22;18267;52.234;7.444;2022-12-07T16:57:32;6.20;99.90
31661;DHT22;18267;52.234;7.444;2022-12-07T16:59:58;6.20;99.90
31661;DHT22;18267;52.234;7.444;2022-12-07T17:02:23;6.20;99.90
31661;DHT22;18267;52.234;7.444;2022-12-07T17:04:49;6.20;99.90
31661;DHT22;18267;52.234;7.444;2022-12-07T17:07:15;6.10;99.90
31661;DHT22;18267;52.234;7.444;2022-12-07T17:09:40;6.10;99.90
31661;DHT22;18267;52.234;7.444;2022-12-07T17:12:06;6.10;99.90
31661;DHT22;18267;52.234;7.444;2022-12-07T17:14:32;6.10;99.90
31661;DHT22;18267;52.234;7.444;2022-12-07T17:17:16;6.10;99.90
31661;DHT22;18267;52.234;7.444;2022-12-07T17:19:41;6.10;99.90
31661;DHT22;18267;52.234;7.444;2022-12-07T17:22:07;6.10;99.90
31661;DHT22;18267;52.234;7.444;2022-12-07T17:24:33;6.10;99.90
31661;DHT22;18267;52.234;7.444;2022-12-07T17:26:58;6.10;99.90
31661;DHT22;18267;52.234;7.444;2022-12-07T17:29:24;6.10;99.90
31661;DHT22;18267;52.234;7.444;2022-12-07T17:31:49;6.20;99.90
31661;DHT22;18267;52.234;7.444;2022-12-07T17:34:15;6.20;99.90
31661;DHT22;18267;52.234;7.444;2022-12-07T17:36:41;6.20;99.90
31661;DHT22;18267;52.234;7.444;2022-12-07T17:39:10;6.10;99.90